createdAt,value
2023-12-09T00:01:19.602Z,4.90
2023-12-09T00:06:21.617Z,4.90
2023-12-09T00:11:23.439Z,4.90
2023-12-09T00:16:25.169Z,4.90
2023-12-09T00:21:27.297Z,4.90
2023-12-09T00:26:29.081Z,4.90
2023-12-09T00:31:30.783Z,4.90
2023-12-09T00:36:32.510Z,4.90
2023-12-09T00:41:34.279Z,4.90
2023-12-09T00:46:35.990Z,4.90
2023-12-09T00:51:37.746Z,4.90
2023-12-09T00:56:39.445Z,4.90
2023-12-09T01:01:41.141Z,4.90
2023-12-09T01:06:42.847Z,4.90
2023-12-09T01:11:44.743Z,4.90
2023-12-09T01:16:46.573Z,4.90
2023-12-09T01:21:48.410Z,4.80
2023-12-09T01:26:50.171Z,4.80
2023-12-09T01:31:51.911Z,4.80
2023-12-09T01:36:55.053Z,4.80
2023-12-09T01:41:57.309Z,4.80
2023-12-09T01:46:59.068Z,4.80
2023-12-09T01:52:02.659Z,4.80
2023-12-09T01:57:04.878Z,4.80
2023-12-09T02:02:08.136Z,4.90
2023-12-09T02:07:09.847Z,4.90
2023-12-09T02:12:29.527Z,4.80
2023-12-09T02:17:42.219Z,4.80
2023-12-09T02:22:44.092Z,4.90
2023-12-09T02:27:55.222Z,4.90
2023-12-09T02:32:58.022Z,4.90
2023-12-09T02:38:00.818Z,4.90
2023-12-09T02:43:03.857Z,4.80
2023-12-09T02:48:06.220Z,4.80
2023-12-09T02:53:08.161Z,4.80
2023-12-09T02:58:09.864Z,4.80
2023-12-09T03:03:11.706Z,4.90
2023-12-09T03:08:13.478Z,4.90
2023-12-09T03:13:15.180Z,4.90
2023-12-09T03:18:17.144Z,4.90
2023-12-09T03:23:19.386Z,4.90
2023-12-09T03:28:21.069Z,4.90
2023-12-09T03:33:22.842Z,4.90
2023-12-09T03:38:24.626Z,4.90
2023-12-09T03:43:26.388Z,4.90
2023-12-09T03:48:29.872Z,4.90
2023-12-09T03:53:31.721Z,4.90
2023-12-09T03:58:33.418Z,4.90
2023-12-09T04:03:35.257Z,4.90
2023-12-09T04:08:37.038Z,5.00
2023-12-09T04:13:38.702Z,5.00
2023-12-09T04:18:40.554Z,5.10
2023-12-09T04:23:42.431Z,5.10
2023-12-09T04:28:44.116Z,5.20
2023-12-09T04:33:45.903Z,5.00
2023-12-09T04:38:47.688Z,5.00
2023-12-09T04:43:49.373Z,4.90
2023-12-09T04:48:51.210Z,4.90
2023-12-09T04:53:53.172Z,5.00
2023-12-09T04:58:54.920Z,5.10
2023-12-09T05:03:57.682Z,5.10
2023-12-09T05:08:59.798Z,5.10
2023-12-09T05:14:01.481Z,5.20
2023-12-09T05:19:05.212Z,5.10
2023-12-09T05:24:07.209Z,5.10
2023-12-09T05:29:08.962Z,5.20
2023-12-09T05:34:10.902Z,5.20
2023-12-09T05:39:12.746Z,5.30
2023-12-09T05:44:14.496Z,5.30
2023-12-09T05:49:16.248Z,5.10
2023-12-09T05:54:18.069Z,5.00
2023-12-09T05:59:19.796Z,5.10
2023-12-09T06:04:21.603Z,5.20
2023-12-09T06:09:23.380Z,5.30
2023-12-09T06:14:25.148Z,5.30
2023-12-09T06:19:26.895Z,5.30
2023-12-09T06:24:28.626Z,5.30
2023-12-09T06:29:30.500Z,5.30
2023-12-09T06:34:32.639Z,5.30
2023-12-09T06:39:35.101Z,5.30
2023-12-09T06:44:36.849Z,5.10
2023-12-09T06:49:38.669Z,5.00
2023-12-09T06:54:40.466Z,5.00
2023-12-09T06:59:42.292Z,5.00
2023-12-09T07:04:44.124Z,5.10
2023-12-09T07:09:45.897Z,5.20
2023-12-09T07:14:47.571Z,5.30
2023-12-09T07:19:49.575Z,5.30
2023-12-09T07:24:51.565Z,5.40
2023-12-09T07:29:53.277Z,5.50
2023-12-09T07:34:57.291Z,5.60
2023-12-09T07:39:59.317Z,5.60
2023-12-09T07:45:01.108Z,5.70
2023-12-09T07:50:02.883Z,5.70
2023-12-09T07:55:05.138Z,5.80
2023-12-09T08:00:08.615Z,5.90
2023-12-09T08:05:10.811Z,6.00
2023-12-09T08:10:12.542Z,6.10
2023-12-09T08:15:14.633Z,6.10
2023-12-09T08:20:17.536Z,6.20
2023-12-09T08:25:19.329Z,6.20
2023-12-09T08:30:21.332Z,6.20
2023-12-09T08:35:23.062Z,6.10
2023-12-09T08:40:24.762Z,6.10
2023-12-09T08:45:26.523Z,6.10
2023-12-09T08:50:28.324Z,6.20
2023-12-09T08:55:30.046Z,6.30
2023-12-09T09:00:31.766Z,6.40
2023-12-09T09:05:33.575Z,6.40
2023-12-09T09:10:35.399Z,6.50
2023-12-09T09:15:37.331Z,6.50
2023-12-09T09:20:39.185Z,6.60
2023-12-09T09:25:40.935Z,6.70
2023-12-09T09:30:42.689Z,7.00
2023-12-09T09:35:44.601Z,7.20
2023-12-09T09:40:46.456Z,7.50
2023-12-09T09:45:49.829Z,7.40
2023-12-09T09:50:53.792Z,7.50
2023-12-09T09:55:56.441Z,7.60
2023-12-09T10:00:58.590Z,7.70
2023-12-09T10:06:00.993Z,7.50
2023-12-09T10:11:02.929Z,7.20
2023-12-09T10:16:04.968Z,7.10
2023-12-09T10:21:09.141Z,7.00
2023-12-09T10:26:11.293Z,7.10
2023-12-09T10:31:13.542Z,7.00
2023-12-09T10:36:15.491Z,7.00
2023-12-09T10:41:17.385Z,6.90
2023-12-09T10:46:19.086Z,6.90
2023-12-09T10:51:20.981Z,6.90
2023-12-09T10:56:22.876Z,6.90
2023-12-09T11:01:25.504Z,6.90
2023-12-09T11:06:32.205Z,7.00
2023-12-09T11:11:33.965Z,7.10
2023-12-09T11:16:35.906Z,7.20
2023-12-09T11:21:37.999Z,7.10
2023-12-09T11:26:42.174Z,7.20
2023-12-09T11:31:49.622Z,7.30
2023-12-09T11:36:53.779Z,7.30
2023-12-09T11:41:55.895Z,7.30
2023-12-09T11:46:58.324Z,7.30
2023-12-09T11:52:00.165Z,7.30
2023-12-09T11:57:02.062Z,7.40
2023-12-09T12:02:04.048Z,7.70
2023-12-09T12:07:05.770Z,8.00
2023-12-09T12:12:07.918Z,8.10
2023-12-09T12:17:12.936Z,8.40
2023-12-09T12:22:16.025Z,8.50
2023-12-09T12:27:17.825Z,8.20
2023-12-09T12:32:19.783Z,7.90
2023-12-09T12:37:21.617Z,7.80
2023-12-09T12:42:23.411Z,7.70
2023-12-09T12:47:25.219Z,7.70
2023-12-09T12:52:27.207Z,7.60
2023-12-09T12:57:29.094Z,7.50
2023-12-09T13:02:34.027Z,7.30
2023-12-09T13:07:35.807Z,7.20
2023-12-09T13:12:37.836Z,7.20
2023-12-09T13:17:40.440Z,7.50
2023-12-09T13:22:42.335Z,7.80
2023-12-09T13:27:45.599Z,7.80
2023-12-09T13:32:47.560Z,7.60
2023-12-09T13:37:49.394Z,7.40
2023-12-09T13:42:52.302Z,7.30
2023-12-09T13:47:54.352Z,7.30
2023-12-09T13:52:56.298Z,7.10
2023-12-09T13:57:58.068Z,7.00
2023-12-09T14:03:00.091Z,6.90
2023-12-09T14:08:01.902Z,6.70
2023-12-09T14:13:04.130Z,6.60
2023-12-09T14:18:06.190Z,6.60
2023-12-09T14:23:08.149Z,6.70
2023-12-09T14:28:10.702Z,6.80
2023-12-09T14:33:12.631Z,6.90
2023-12-09T14:38:14.617Z,6.90
2023-12-09T14:43:16.622Z,6.80
2023-12-09T14:48:18.711Z,6.80
2023-12-09T14:53:21.090Z,6.70
2023-12-09T14:58:23.028Z,6.50
2023-12-09T15:03:25.196Z,6.50
2023-12-09T15:08:27.298Z,6.50
2023-12-09T15:13:29.169Z,6.40
2023-12-09T15:18:31.105Z,6.20
2023-12-09T15:23:33.886Z,6.20
2023-12-09T15:28:35.728Z,6.10
2023-12-09T15:33:37.806Z,6.10
2023-12-09T15:38:40.226Z,6.10
2023-12-09T15:43:44.496Z,6.00
2023-12-09T15:48:46.641Z,5.90
2023-12-09T15:53:49.283Z,6.00
2023-12-09T15:58:51.443Z,6.00
2023-12-09T16:03:53.551Z,5.90
2023-12-09T16:08:55.370Z,5.80
2023-12-09T16:13:57.119Z,5.80
2023-12-09T16:18:58.964Z,5.80
2023-12-09T16:24:00.792Z,5.80
2023-12-09T16:29:02.618Z,5.90
2023-12-09T16:34:05.130Z,5.80
2023-12-09T16:39:07.399Z,5.80
2023-12-09T16:44:11.425Z,5.90
2023-12-09T16:49:13.679Z,5.80
2023-12-09T16:54:15.771Z,5.80
2023-12-09T16:59:17.585Z,5.80
2023-12-09T17:04:19.528Z,5.80
2023-12-09T17:09:21.640Z,5.70
2023-12-09T17:14:23.629Z,5.80
2023-12-09T17:19:25.447Z,5.80
2023-12-09T17:24:27.643Z,5.80
2023-12-09T17:29:29.450Z,5.80
2023-12-09T17:34:32.059Z,5.90
2023-12-09T17:39:34.000Z,5.90
2023-12-09T17:44:35.811Z,5.90
2023-12-09T17:49:37.639Z,5.90
2023-12-09T17:54:39.504Z,5.90
2023-12-09T17:59:41.293Z,5.80
2023-12-09T18:04:45.195Z,5.70
2023-12-09T18:09:48.389Z,5.50
2023-12-09T18:14:50.174Z,5.40
2023-12-09T18:19:53.265Z,5.40
2023-12-09T18:24:55.052Z,5.40
2023-12-09T18:29:56.862Z,5.40
2023-12-09T18:34:58.901Z,5.30
2023-12-09T18:40:00.695Z,5.30
2023-12-09T18:45:02.732Z,5.40
2023-12-09T18:50:05.003Z,5.40
2023-12-09T18:55:07.757Z,5.40
2023-12-09T19:00:10.018Z,5.40
2023-12-09T19:05:12.114Z,5.50
2023-12-09T19:10:13.974Z,5.60
2023-12-09T19:15:16.523Z,5.70
2023-12-09T19:20:18.319Z,5.60
2023-12-09T19:25:20.169Z,5.70
2023-12-09T19:30:22.077Z,5.70
2023-12-09T19:35:24.530Z,5.60
2023-12-09T19:40:26.279Z,5.60
2023-12-09T19:45:28.191Z,5.70
2023-12-09T19:50:31.203Z,5.60
2023-12-09T19:55:33.104Z,5.60
2023-12-09T20:00:35.447Z,5.60
2023-12-09T20:05:37.271Z,5.70
2023-12-09T20:10:39.367Z,5.60
2023-12-09T20:15:41.188Z,5.60
2023-12-09T20:20:42.919Z,5.50
2023-12-09T20:25:44.721Z,5.60
2023-12-09T20:30:46.732Z,5.40
2023-12-09T20:35:48.486Z,5.40
2023-12-09T20:40:50.283Z,5.40
2023-12-09T20:45:52.125Z,5.40
2023-12-09T20:50:54.555Z,5.40
2023-12-09T20:55:56.770Z,5.40
2023-12-09T21:00:59.579Z,5.40
2023-12-09T21:06:01.447Z,5.40
2023-12-09T21:11:03.212Z,5.50
2023-12-09T21:16:05.183Z,5.50
2023-12-09T21:21:07.171Z,5.60
2023-12-09T21:26:08.958Z,5.60
2023-12-09T21:31:14.201Z,5.70
2023-12-09T21:36:16.829Z,5.70
2023-12-09T21:41:22.694Z,5.60
2023-12-09T21:46:25.540Z,5.70
2023-12-09T21:51:29.088Z,5.70
2023-12-09T21:56:30.953Z,5.70
2023-12-09T22:01:33.639Z,5.70
2023-12-09T22:06:35.443Z,5.80
2023-12-09T22:11:37.243Z,5.80
2023-12-09T22:16:39.025Z,5.80
2023-12-09T22:21:41.680Z,5.70
2023-12-09T22:26:45.064Z,5.70
2023-12-09T22:31:47.259Z,5.60
2023-12-09T22:36:49.068Z,5.80
2023-12-09T22:41:52.157Z,5.70
2023-12-09T22:46:53.962Z,5.70
2023-12-09T22:51:55.793Z,5.70
2023-12-09T22:56:58.266Z,5.50
2023-12-09T23:02:00.006Z,5.60
2023-12-09T23:07:01.937Z,5.70
2023-12-09T23:12:04.045Z,5.70
2023-12-09T23:17:05.885Z,5.80
2023-12-09T23:22:07.655Z,5.90
2023-12-09T23:27:09.406Z,5.90
2023-12-09T23:32:12.756Z,6.00
2023-12-09T23:37:14.524Z,5.90
2023-12-09T23:42:16.253Z,6.00
2023-12-09T23:47:18.066Z,5.90
2023-12-09T23:52:19.876Z,5.80
2023-12-09T23:57:21.854Z,5.90
